createdAt,value
2023-04-18T00:00:39.932Z,100632.13
2023-04-18T00:03:09.967Z,100641.69
2023-04-18T00:05:40.602Z,100636.91
2023-04-18T00:08:10.263Z,100638.41
2023-04-18T00:10:39.969Z,100640.75
2023-04-18T00:13:12.624Z,100635.31
2023-04-18T00:15:44.013Z,100631.75
2023-04-18T00:18:17.065Z,100634.56
2023-04-18T00:20:47.163Z,100639.25
2023-04-18T00:23:16.945Z,100643.00
2023-04-18T00:25:46.602Z,100642.94
2023-04-18T00:28:18.900Z,100640.91
2023-04-18T00:30:49.135Z,100648.69
2023-04-18T00:33:19.049Z,100648.44
2023-04-18T00:35:48.708Z,100645.06
2023-04-18T00:38:18.369Z,100659.47
2023-04-18T00:40:48.075Z,100646.97
2023-04-18T00:43:20.368Z,100653.34
2023-04-18T00:45:50.118Z,100664.66
2023-04-18T00:48:20.379Z,100672.25
2023-04-18T00:50:50.142Z,100669.97
2023-04-18T00:53:20.028Z,100670.19
2023-04-18T00:55:50.251Z,100671.84
2023-04-18T00:58:23.201Z,100676.84
2023-04-18T01:00:54.913Z,100677.94
2023-04-18T01:03:25.889Z,100680.44
2023-04-18T01:05:57.652Z,100674.81
2023-04-18T01:08:28.446Z,100670.25
2023-04-18T01:11:00.935Z,100667.75
2023-04-18T01:13:33.169Z,100667.00
2023-04-18T01:16:02.911Z,100669.84
2023-04-18T01:18:35.373Z,100675.13
2023-04-18T01:21:06.305Z,100677.69
2023-04-18T01:23:36.050Z,100683.84
2023-04-18T01:26:08.496Z,100687.22
2023-04-18T01:28:39.811Z,100686.59
2023-04-18T01:31:10.959Z,100686.34
2023-04-18T01:33:40.844Z,100693.06
2023-04-18T01:36:10.954Z,100688.78
2023-04-18T01:38:40.639Z,100696.03
2023-04-18T01:41:12.886Z,100708.22
2023-04-18T01:43:42.482Z,100693.91
2023-04-18T01:46:12.436Z,100694.72
2023-04-18T01:48:42.101Z,100697.50
2023-04-18T01:51:11.923Z,100697.25
2023-04-18T01:53:41.586Z,100695.75
2023-04-18T01:56:14.695Z,100695.97
2023-04-18T01:58:44.430Z,100690.81
2023-04-18T02:01:15.869Z,100698.91
2023-04-18T02:03:45.777Z,100698.75
2023-04-18T02:06:15.824Z,100698.94
2023-04-18T02:08:45.502Z,100699.28
2023-04-18T02:11:17.707Z,100700.13
2023-04-18T02:13:48.160Z,100697.75
2023-04-18T02:16:17.959Z,100703.66
2023-04-18T02:18:47.749Z,100696.00
2023-04-18T02:21:17.457Z,100697.25
2023-04-18T02:23:47.136Z,100701.09
2023-04-18T02:26:19.479Z,100697.25
2023-04-18T02:28:49.136Z,100694.69
2023-04-18T02:31:20.305Z,100707.72
2023-04-18T02:33:50.209Z,100709.88
2023-04-18T02:36:20.022Z,100709.38
2023-04-18T02:38:49.713Z,100716.06
2023-04-18T02:41:25.957Z,100709.84
2023-04-18T02:43:58.292Z,100716.22
2023-04-18T02:46:28.231Z,100715.63
2023-04-18T02:48:58.033Z,100727.09
2023-04-18T02:51:28.237Z,100716.91
2023-04-18T02:54:00.931Z,100716.19
2023-04-18T02:56:43.073Z,100714.44
2023-04-18T02:59:19.678Z,100720.31
2023-04-18T03:02:07.875Z,100725.34
2023-04-18T03:04:40.559Z,100727.00
2023-04-18T03:07:11.751Z,100727.47
2023-04-18T03:09:42.454Z,100728.75
2023-04-18T03:12:23.294Z,100730.91
2023-04-18T03:14:52.925Z,100737.78
2023-04-18T03:17:23.888Z,100732.28
2023-04-18T03:19:53.606Z,100740.59
2023-04-18T03:22:23.719Z,100742.06
2023-04-18T03:25:00.252Z,100743.41
2023-04-18T03:27:46.806Z,100747.66
2023-04-18T03:30:19.943Z,100746.63
2023-04-18T03:32:56.345Z,100742.78
2023-04-18T03:35:26.191Z,100743.84
2023-04-18T03:37:55.947Z,100741.97
2023-04-18T03:40:32.072Z,100743.97
2023-04-18T03:43:10.881Z,100747.03
2023-04-18T03:45:40.911Z,100753.69
2023-04-18T03:48:10.559Z,100755.69
2023-04-18T03:50:44.508Z,100757.31
2023-04-18T03:53:14.560Z,100759.84
2023-04-18T03:55:44.678Z,100762.06
2023-04-18T03:58:23.868Z,100767.50
2023-04-18T04:00:54.720Z,100765.03
2023-04-18T04:03:25.324Z,100767.59
2023-04-18T04:05:55.256Z,100768.75
2023-04-18T04:08:27.666Z,100769.34
2023-04-18T04:10:58.023Z,100776.84
2023-04-18T04:13:30.401Z,100770.59
2023-04-18T04:16:00.813Z,100770.16
2023-04-18T04:18:31.794Z,100781.56
2023-04-18T04:21:03.756Z,100762.53
2023-04-18T04:23:46.626Z,100765.78
2023-04-18T04:26:27.794Z,100767.41
2023-04-18T04:29:13.976Z,100766.53
2023-04-18T04:31:45.442Z,100772.22
2023-04-18T04:34:17.601Z,100769.34
2023-04-18T04:36:48.332Z,100772.69
2023-04-18T04:39:18.130Z,100780.38
2023-04-18T04:42:16.800Z,100781.09
2023-04-18T04:45:00.328Z,100779.47
2023-04-18T04:47:30.133Z,100788.06
2023-04-18T04:49:59.812Z,100783.72
2023-04-18T04:52:29.522Z,100782.69
2023-04-18T04:54:59.226Z,100786.47
2023-04-18T04:57:29.463Z,100781.53
2023-04-18T05:00:01.693Z,100782.66
2023-04-18T05:02:32.092Z,100792.53
2023-04-18T05:05:02.630Z,100802.50
2023-04-18T05:07:33.651Z,100785.53
2023-04-18T05:10:03.284Z,100791.31
2023-04-18T05:12:32.930Z,100793.13
2023-04-18T05:15:05.603Z,100803.34
2023-04-18T05:17:35.361Z,100803.00
2023-04-18T05:20:05.071Z,100799.69
2023-04-18T05:22:35.271Z,100811.34
2023-04-18T05:25:05.495Z,100800.16
2023-04-18T05:27:35.128Z,100805.06
2023-04-18T05:30:08.435Z,100803.88
2023-04-18T05:32:39.230Z,100802.34
2023-04-18T05:35:09.781Z,100806.75
2023-04-18T05:37:39.460Z,100812.97
2023-04-18T05:40:12.220Z,100816.78
2023-04-18T05:42:41.954Z,100818.84
2023-04-18T05:45:14.823Z,100814.75
2023-04-18T05:47:44.569Z,100822.06
2023-04-18T05:50:14.262Z,100814.31
2023-04-18T05:52:44.206Z,100816.56
2023-04-18T05:55:14.107Z,100824.16
2023-04-18T05:57:43.824Z,100812.53
2023-04-18T06:00:17.578Z,100822.38
2023-04-18T06:02:47.405Z,100817.91
2023-04-18T06:05:17.375Z,100815.97
2023-04-18T06:07:48.247Z,100811.16
2023-04-18T06:10:17.972Z,100808.50
2023-04-18T06:12:47.906Z,100806.13
2023-04-18T06:15:20.399Z,100805.53
2023-04-18T06:17:50.069Z,100807.78
2023-04-18T06:20:19.763Z,100808.81
2023-04-18T06:22:49.411Z,100805.66
2023-04-18T06:25:19.589Z,100811.63
2023-04-18T06:27:49.298Z,100808.97
2023-04-18T06:30:22.339Z,100819.38
2023-04-18T06:32:52.068Z,100826.50
2023-04-18T06:35:21.845Z,100815.88
2023-04-18T06:37:52.017Z,100822.41
2023-04-18T06:40:21.837Z,100820.25
2023-04-18T06:42:51.771Z,100818.19
2023-04-18T06:45:24.526Z,100814.56
2023-04-18T06:47:54.356Z,100816.28
2023-04-18T06:50:24.036Z,100824.56
2023-04-18T06:52:53.646Z,100814.53
2023-04-18T06:55:23.548Z,100823.16
2023-04-18T06:57:53.243Z,100831.22
2023-04-18T07:00:25.964Z,100836.50
2023-04-18T07:02:55.824Z,100834.22
2023-04-18T07:05:25.720Z,100834.66
2023-04-18T07:07:55.361Z,100829.13
2023-04-18T07:10:25.126Z,100828.41
2023-04-18T07:12:54.766Z,100835.31
2023-04-18T07:15:26.988Z,100830.53
2023-04-18T07:17:56.687Z,100819.66
2023-04-18T07:20:26.392Z,100824.97
2023-04-18T07:22:56.120Z,100834.97
2023-04-18T07:25:25.818Z,100831.84
2023-04-18T07:27:56.040Z,100830.94
2023-04-18T07:30:28.406Z,100833.63
2023-04-18T07:32:58.158Z,100829.34
2023-04-18T07:35:27.810Z,100820.75
2023-04-18T07:37:57.514Z,100813.00
2023-04-18T07:40:27.246Z,100816.47
2023-04-18T07:42:56.957Z,100818.41
2023-04-18T07:45:29.243Z,100827.00
2023-04-18T07:47:58.989Z,100820.22
2023-04-18T07:50:28.695Z,100823.56
2023-04-18T07:52:58.379Z,100820.63
2023-04-18T07:55:28.089Z,100821.03
2023-04-18T07:57:57.755Z,100809.69
2023-04-18T08:00:32.788Z,100823.34
2023-04-18T08:03:02.683Z,100831.09
2023-04-18T08:05:32.621Z,100826.88
2023-04-18T08:08:02.464Z,100830.25
2023-04-18T08:10:32.621Z,100824.50
2023-04-18T08:13:02.514Z,100827.22
2023-04-18T08:15:35.046Z,100825.16
2023-04-18T08:18:04.780Z,100826.31
2023-04-18T08:20:35.412Z,100812.69
2023-04-18T08:23:08.514Z,100803.66
2023-04-18T08:25:39.342Z,100807.16
2023-04-18T08:28:09.286Z,100796.56
2023-04-18T08:30:42.532Z,100778.88
2023-04-18T08:33:12.491Z,100783.06
2023-04-18T08:35:42.172Z,100777.06
2023-04-18T08:38:11.950Z,100785.00
2023-04-18T08:40:41.828Z,100773.72
2023-04-18T08:43:14.195Z,100780.00
2023-04-18T08:45:48.505Z,100781.09
2023-04-18T08:48:19.086Z,100775.63
2023-04-18T08:50:48.778Z,100775.31
2023-04-18T08:53:18.701Z,100776.56
2023-04-18T08:55:50.708Z,100782.81
2023-04-18T08:58:27.218Z,100780.28
2023-04-18T09:00:59.465Z,100780.75
2023-04-18T09:03:40.232Z,100784.53
2023-04-18T09:06:16.473Z,100777.03
2023-04-18T09:08:47.177Z,100783.50
2023-04-18T09:11:24.172Z,100785.88
2023-04-18T09:13:56.123Z,100791.72
2023-04-18T09:16:31.460Z,100793.38
2023-04-18T09:19:18.637Z,100800.25
2023-04-18T09:21:49.040Z,100803.31
2023-04-18T09:24:21.249Z,100798.91
2023-04-18T09:26:54.091Z,100787.09
2023-04-18T09:29:25.188Z,100788.00
2023-04-18T09:32:05.973Z,100782.44
2023-04-18T09:34:38.464Z,100773.75
2023-04-18T09:37:10.462Z,100757.34
2023-04-18T09:39:41.231Z,100764.25
2023-04-18T09:42:11.296Z,100762.63
2023-04-18T09:44:41.270Z,100772.84
2023-04-18T09:47:13.546Z,100752.72
2023-04-18T09:49:43.248Z,100756.50
2023-04-18T09:52:12.994Z,100756.56
2023-04-18T09:54:45.215Z,100752.47
2023-04-18T09:57:17.302Z,100755.16
2023-04-18T09:59:52.590Z,100753.13
2023-04-18T10:02:25.895Z,100754.25
2023-04-18T10:04:58.722Z,100759.38
2023-04-18T10:07:30.043Z,100763.56
2023-04-18T10:09:59.669Z,100756.56
2023-04-18T10:12:29.660Z,100750.09
2023-04-18T10:14:59.670Z,100748.38
2023-04-18T10:17:32.213Z,100745.53
2023-04-18T10:20:11.238Z,100754.81
2023-04-18T10:22:40.958Z,100752.31
2023-04-18T10:25:11.387Z,100740.88
2023-04-18T10:28:00.146Z,100747.69
2023-04-18T10:30:56.123Z,100741.84
2023-04-18T10:33:32.232Z,100747.31
2023-04-18T10:36:08.514Z,100737.59
2023-04-18T10:38:45.309Z,100746.72
2023-04-18T10:41:17.150Z,100748.09
2023-04-18T10:44:13.445Z,100750.00
2023-04-18T10:46:44.814Z,100757.47
2023-04-18T10:49:24.464Z,100747.72
2023-04-18T10:51:58.593Z,100758.88
2023-04-18T10:54:35.854Z,100762.75
2023-04-18T10:57:08.181Z,100762.75
2023-04-18T10:59:41.179Z,100764.09
2023-04-18T11:02:26.426Z,100760.59
2023-04-18T11:05:00.145Z,100768.44
2023-04-18T11:07:36.968Z,100765.94
2023-04-18T11:10:07.000Z,100763.78
2023-04-18T11:12:38.888Z,100766.53
2023-04-18T11:15:14.616Z,100760.22
2023-04-18T11:17:44.441Z,100755.03
2023-04-18T11:20:17.520Z,100759.59
2023-04-18T11:22:52.432Z,100757.34
2023-04-18T11:25:24.859Z,100749.75
2023-04-18T11:27:55.284Z,100752.09
2023-04-18T11:30:25.084Z,100740.94
2023-04-18T11:32:56.117Z,100742.50
2023-04-18T11:35:28.920Z,100730.84
2023-04-18T11:37:58.690Z,100744.66
2023-04-18T11:40:28.604Z,100751.75
2023-04-18T11:42:58.319Z,100754.41
2023-04-18T11:45:28.223Z,100745.41
2023-04-18T11:47:59.742Z,100757.56
2023-04-18T11:50:38.043Z,100751.75
2023-04-18T11:53:07.709Z,100752.09
2023-04-18T11:55:37.370Z,100761.41
2023-04-18T11:58:07.223Z,100747.25
2023-04-18T12:00:38.765Z,100752.09
2023-04-18T12:03:13.360Z,100747.56
2023-04-18T12:05:48.159Z,100757.09
2023-04-18T12:08:23.062Z,100750.69
2023-04-18T12:10:54.616Z,100748.13
2023-04-18T12:13:27.918Z,100743.56
2023-04-18T12:15:57.585Z,100740.28
2023-04-18T12:18:27.605Z,100741.38
2023-04-18T12:21:02.164Z,100739.66
2023-04-18T12:23:33.883Z,100733.78
2023-04-18T12:26:04.980Z,100734.41
2023-04-18T12:28:35.368Z,100729.00
2023-04-18T12:31:06.085Z,100731.81
2023-04-18T12:33:36.275Z,100724.81
2023-04-18T12:36:09.831Z,100717.78
2023-04-18T12:38:39.722Z,100714.25
2023-04-18T12:41:09.452Z,100712.00
2023-04-18T12:43:39.103Z,100710.41
2023-04-18T12:46:08.868Z,100709.91
2023-04-18T12:48:38.543Z,100705.13
2023-04-18T12:51:10.882Z,100710.88
2023-04-18T12:53:40.726Z,100705.28
2023-04-18T12:56:10.999Z,100707.63
2023-04-18T12:58:41.041Z,100706.59
2023-04-18T13:01:10.711Z,100707.94
2023-04-18T13:03:40.611Z,100709.22
2023-04-18T13:06:12.967Z,100700.47
2023-04-18T13:08:42.827Z,100705.09
2023-04-18T13:11:12.720Z,100715.38
2023-04-18T13:13:42.356Z,100698.00
2023-04-18T13:16:12.528Z,100699.91
2023-04-18T13:18:42.297Z,100698.44
2023-04-18T13:21:14.568Z,100696.59
2023-04-18T13:23:44.208Z,100704.81
2023-04-18T13:26:13.937Z,100703.03
2023-04-18T13:28:43.638Z,100697.50
2023-04-18T13:31:14.515Z,100695.38
2023-04-18T13:33:46.081Z,100696.81
2023-04-18T13:36:18.308Z,100695.13
2023-04-18T13:38:48.486Z,100688.63
2023-04-18T13:41:18.319Z,100692.63
2023-04-18T13:43:47.978Z,100690.38
2023-04-18T13:46:17.756Z,100692.06
2023-04-18T13:48:47.520Z,100690.31
2023-04-18T13:51:19.800Z,100691.00
2023-04-18T13:53:49.443Z,100682.44
2023-04-18T13:56:19.070Z,100686.25
2023-04-18T13:58:48.689Z,100683.47
2023-04-18T14:01:19.163Z,100683.53
2023-04-18T14:03:49.283Z,100685.22
2023-04-18T14:06:21.624Z,100687.97
2023-04-18T14:08:52.224Z,100692.84
2023-04-18T14:11:22.859Z,100681.19
2023-04-18T14:13:52.505Z,100679.94
2023-04-18T14:16:22.274Z,100675.34
2023-04-18T14:18:51.970Z,100674.38
2023-04-18T14:21:24.224Z,100681.81
2023-04-18T14:23:55.385Z,100683.00
2023-04-18T14:26:25.686Z,100684.81
2023-04-18T14:28:55.326Z,100674.63
2023-04-18T14:31:25.118Z,100665.56
2023-04-18T14:33:55.269Z,100680.34
2023-04-18T14:36:27.828Z,100682.50
2023-04-18T14:38:57.577Z,100670.56
2023-04-18T14:41:27.516Z,100678.31
2023-04-18T14:43:57.231Z,100675.31
2023-04-18T14:46:28.455Z,100679.34
2023-04-18T14:48:58.428Z,100679.81
2023-04-18T14:51:31.361Z,100679.09
2023-04-18T14:54:01.301Z,100687.91
2023-04-18T15:10:25.198Z,100686.75
2023-04-18T15:12:54.897Z,100669.13
2023-04-18T15:15:25.357Z,100678.59
2023-04-18T15:17:55.201Z,100675.81
2023-04-18T15:20:25.411Z,100684.34
2023-04-18T15:22:55.108Z,100678.75
2023-04-18T15:25:27.567Z,100679.97
2023-04-18T15:27:57.407Z,100677.91
2023-04-18T15:30:27.600Z,100675.66
2023-04-18T15:32:57.426Z,100679.84
2023-04-18T15:35:27.443Z,100678.84
2023-04-18T15:37:57.642Z,100674.59
2023-04-18T15:40:30.539Z,100683.66
2023-04-18T15:43:00.364Z,100685.06
2023-04-18T15:45:30.062Z,100683.50
2023-04-18T15:47:59.829Z,100684.97
2023-04-18T15:50:32.124Z,100690.66
2023-04-18T15:53:03.061Z,100689.09
2023-04-18T15:55:35.475Z,100692.16
2023-04-18T15:58:05.338Z,100681.06
2023-04-18T16:00:35.033Z,100685.75
2023-04-18T16:03:04.951Z,100692.53
2023-04-18T16:05:34.905Z,100688.28
2023-04-18T16:08:04.975Z,100692.47
2023-04-18T16:10:37.440Z,100693.06
2023-04-18T16:13:07.353Z,100688.16
2023-04-18T16:15:41.611Z,100686.28
2023-04-18T16:18:11.467Z,100689.56
2023-04-18T16:20:41.126Z,100693.19
2023-04-18T16:23:10.873Z,100686.50
2023-04-18T16:25:43.137Z,100696.97
2023-04-18T16:28:12.844Z,100685.94
2023-04-18T16:30:43.959Z,100688.88
2023-04-18T16:33:13.771Z,100701.28
2023-04-18T16:35:43.632Z,100706.13
2023-04-18T16:38:13.301Z,100698.38
2023-04-18T16:40:45.522Z,100699.00
2023-04-18T16:43:15.196Z,100697.50
2023-04-18T16:45:44.882Z,100696.78
2023-04-18T16:48:14.549Z,100703.75
2023-04-18T16:50:45.759Z,100699.72
2023-04-18T16:53:15.458Z,100698.72
2023-04-18T16:55:47.773Z,100701.34
2023-04-18T16:58:17.434Z,100695.56
2023-04-18T17:00:47.506Z,100703.13
2023-04-18T17:03:17.254Z,100703.75
2023-04-18T17:05:47.032Z,100708.44
2023-04-18T17:08:16.761Z,100711.31
2023-04-18T17:10:49.122Z,100714.88
2023-04-18T17:13:18.822Z,100710.13
2023-04-18T17:15:48.582Z,100712.97
2023-04-18T17:18:18.310Z,100713.09
2023-04-18T17:20:48.000Z,100704.72
2023-04-18T17:23:17.644Z,100718.69
2023-04-18T17:25:50.015Z,100715.09
2023-04-18T17:28:19.740Z,100708.00
2023-04-18T17:30:50.426Z,100706.22
2023-04-18T17:33:20.231Z,100700.84
2023-04-18T17:35:50.493Z,100702.38
2023-04-18T17:38:20.177Z,100699.97
2023-04-18T17:41:01.606Z,100697.16
2023-04-18T17:43:31.644Z,100702.56
2023-04-18T17:46:03.933Z,100704.09
2023-04-18T17:48:33.671Z,100697.41
2023-04-18T17:51:03.709Z,100696.69
2023-04-18T17:53:33.531Z,100691.53
2023-04-18T17:56:06.389Z,100693.88
2023-04-18T17:58:36.303Z,100688.63
2023-04-18T18:01:06.471Z,100688.47
2023-04-18T18:03:36.470Z,100698.28
2023-04-18T18:06:06.560Z,100688.84
2023-04-18T18:08:36.212Z,100692.34
2023-04-18T18:11:08.862Z,100684.16
2023-04-18T18:13:39.056Z,100689.16
2023-04-18T18:16:09.646Z,100687.97
2023-04-18T18:18:39.647Z,100691.31
2023-04-18T18:21:09.463Z,100691.88
2023-04-18T18:23:39.206Z,100686.97
2023-04-18T18:26:11.663Z,100697.50
2023-04-18T18:28:41.409Z,100693.13
2023-04-18T18:31:11.125Z,100697.50
2023-04-18T18:33:40.937Z,100694.28
2023-04-18T18:36:10.711Z,100702.78
2023-04-18T18:38:40.382Z,100710.53
2023-04-18T18:41:12.686Z,100705.13
2023-04-18T18:43:42.887Z,100702.53
2023-04-18T18:46:12.623Z,100701.88
2023-04-18T18:48:42.366Z,100702.75
2023-04-18T18:51:12.333Z,100707.81
2023-04-18T18:53:42.044Z,100709.16
2023-04-18T18:56:14.583Z,100694.66
2023-04-18T18:58:45.034Z,100710.84
2023-04-18T19:01:14.803Z,100713.94
2023-04-18T19:03:44.854Z,100720.13
2023-04-18T19:06:15.029Z,100728.03
2023-04-18T19:08:44.956Z,100730.47
2023-04-18T19:11:18.583Z,100721.56
2023-04-18T19:13:48.397Z,100725.72
2023-04-18T19:16:18.337Z,100736.97
2023-04-18T19:18:50.747Z,100731.06
2023-04-18T19:21:20.762Z,100726.63
2023-04-18T19:23:50.602Z,100725.41
2023-04-18T19:26:23.241Z,100726.53
2023-04-18T19:28:53.096Z,100724.28
2023-04-18T19:31:22.928Z,100729.31
2023-04-18T19:33:52.907Z,100720.31
2023-04-18T19:36:22.708Z,100725.34
2023-04-18T19:38:52.648Z,100732.81
2023-04-18T19:41:25.061Z,100729.63
2023-04-18T19:43:55.367Z,100730.66
2023-04-18T19:46:25.149Z,100735.75
2023-04-18T19:48:54.968Z,100741.84
2023-04-18T19:51:24.871Z,100754.38
2023-04-18T19:53:55.577Z,100749.50
2023-04-18T19:56:28.072Z,100754.22
2023-04-18T19:58:58.206Z,100747.59
2023-04-18T20:01:28.128Z,100745.09
2023-04-18T20:04:00.601Z,100744.91
2023-04-18T20:06:31.115Z,100734.09
2023-04-18T20:09:00.999Z,100731.34
2023-04-18T20:11:33.542Z,100729.34
2023-04-18T20:14:04.567Z,100725.06
2023-04-18T20:16:34.688Z,100724.94
2023-04-18T20:19:05.796Z,100733.75
2023-04-18T20:21:35.845Z,100729.50
2023-04-18T20:24:06.967Z,100722.34
2023-04-18T20:26:39.316Z,100715.75
2023-04-18T20:29:09.075Z,100723.19
2023-04-18T20:31:42.428Z,100715.81
2023-04-18T20:34:12.538Z,100715.31
2023-04-18T20:36:42.867Z,100724.16
2023-04-18T20:39:12.991Z,100717.84
2023-04-18T20:41:47.411Z,100722.78
2023-04-18T20:44:19.177Z,100726.13
2023-04-18T20:46:49.040Z,100728.94
2023-04-18T20:49:18.996Z,100733.81
2023-04-18T20:51:48.739Z,100741.78
2023-04-18T20:54:18.421Z,100745.00
2023-04-18T20:56:50.657Z,100741.56
2023-04-18T20:59:20.299Z,100747.03
2023-04-18T21:01:50.062Z,100742.75
2023-04-18T21:04:19.996Z,100766.28
2023-04-18T21:06:50.014Z,100765.75
2023-04-18T21:09:19.816Z,100758.53
2023-04-18T21:11:52.027Z,100756.38
2023-04-18T21:14:21.714Z,100762.25
2023-04-18T21:16:51.372Z,100763.28
2023-04-18T21:19:21.015Z,100757.66
2023-04-18T21:21:50.776Z,100762.44
2023-04-18T21:24:20.623Z,100762.06
2023-04-18T21:26:52.854Z,100763.47
2023-04-18T21:29:22.566Z,100762.88
2023-04-18T21:31:52.564Z,100758.88
2023-04-18T21:34:22.252Z,100762.72
2023-04-18T21:36:51.909Z,100766.81
2023-04-18T21:39:21.556Z,100760.72
2023-04-18T21:41:53.826Z,100751.59
2023-04-18T21:44:23.526Z,100755.81
2023-04-18T21:46:53.194Z,100755.25
2023-04-18T21:49:22.906Z,100753.09
2023-04-18T21:51:52.601Z,100753.59
2023-04-18T21:54:22.279Z,100753.09
2023-04-18T21:56:54.541Z,100761.19
2023-04-18T21:59:24.210Z,100752.84
2023-04-18T22:01:53.872Z,100755.09
2023-04-18T22:04:26.529Z,100749.56
2023-04-18T22:06:57.001Z,100742.91
2023-04-18T22:09:26.643Z,100743.34
2023-04-18T22:11:59.715Z,100740.34
2023-04-18T22:14:29.390Z,100742.94
2023-04-18T22:16:59.477Z,100736.38
2023-04-18T22:19:29.655Z,100739.88
2023-04-18T22:21:59.375Z,100742.59
2023-04-18T22:24:29.045Z,100734.53
2023-04-18T22:27:02.926Z,100728.91
2023-04-18T22:29:32.577Z,100728.91
2023-04-18T22:32:02.217Z,100735.63
2023-04-18T22:34:31.888Z,100733.31
2023-04-18T22:37:01.607Z,100741.47
2023-04-18T22:39:31.408Z,100736.00
2023-04-18T22:42:03.704Z,100744.22
2023-04-18T22:44:33.437Z,100749.41
2023-04-18T22:47:03.389Z,100748.38
2023-04-18T22:49:33.205Z,100742.34
2023-04-18T22:52:02.892Z,100752.25
2023-04-18T22:54:32.686Z,100740.06
2023-04-18T22:57:04.950Z,100732.88
2023-04-18T22:59:34.619Z,100740.00
2023-04-18T23:02:04.457Z,100725.84
2023-04-18T23:04:35.322Z,100730.19
2023-04-18T23:07:05.325Z,100735.44
2023-04-18T23:09:36.182Z,100735.31
2023-04-18T23:12:08.760Z,100727.50
2023-04-18T23:14:39.050Z,100721.81
2023-04-18T23:17:08.712Z,100718.06
2023-04-18T23:19:38.431Z,100721.63
2023-04-18T23:22:08.114Z,100727.44
2023-04-18T23:24:37.953Z,100722.84
2023-04-18T23:27:10.232Z,100723.69
2023-04-18T23:29:40.738Z,100720.88
2023-04-18T23:32:10.515Z,100713.66
2023-04-18T23:34:40.215Z,100712.66
2023-04-18T23:37:09.958Z,100709.69
2023-04-18T23:39:39.618Z,100713.72
2023-04-18T23:42:11.913Z,100713.66
2023-04-18T23:44:41.569Z,100702.53
2023-04-18T23:47:11.499Z,100708.41
2023-04-18T23:49:41.170Z,100707.63
2023-04-18T23:52:10.913Z,100708.84
2023-04-18T23:54:41.279Z,100692.03
2023-04-18T23:57:13.514Z,100682.69
2023-04-18T23:59:43.166Z,100682.09
